Flight Track Log - Related Links

Times and Time Zones

All times are in EDT time to prevent confusion due to time zone crossing. See the QXE2222 flight status page for this flight to view local times or setup timezone preferences in your user account.


Time Position Orientation Groundspeed Altitude Reporting Facility
EDT Latitude Longitude Course Direction KTS MPH feet Rate Location/Type
Sun 02:51:47 PM 44.2864 -121.1464 346° North 185 213 4,600  Level Seattle Center
Sun 02:52:48 PM 44.3253 -121.2275 304° West 210 242 6,400 1,512 Climbing Seattle Center
Sun 02:53:50 PM 44.3678 -121.3142 304° West 261 300 7,700 1,463 Climbing Seattle Center
Sun 02:54:51 PM 44.4133 -121.4050 305° West 282 325 9,400 1,672 Climbing Seattle Center
Sun 02:55:00 PM 44.7255 -121.3129 346° North  Level Estimated
Sun 02:55:52 PM 44.4617 -121.4994 306° West 296 341 11,100  Level Seattle Center
Sun 02:56:00 PM 44.8041 -121.3404 346° North  Level Estimated
Sun 02:56:53 PM 44.5042 -121.5864 304° West 301 346 12,700  Level Seattle Center
Sun 02:57:00 PM 44.8826 -121.3679 346° North  Level Estimated
Sun 02:57:54 PM 44.5650 -121.6956 308° West 296 341 14,700  Level Seattle Center
Sun 02:58:55 PM 44.6297 -121.7622 324° Northwest 287 330 16,100 1,131 Climbing Seattle Center
Sun 02:59:56 PM 44.7033 -121.8094 335° Northwest 288 331 17,000 1,082 Climbing Seattle Center
Sun 03:00:57 PM 44.7772 -121.8658 332° Northwest 297 342 18,300 1,131 Climbing Seattle Center
Sun 03:01:58 PM 44.8481 -121.9178 333° Northwest 303 349 19,300 1,082 Climbing Seattle Center
Sun 03:02:59 PM 44.9272 -121.9772 332° Northwest 306 352 20,500 1,024 Climbing Seattle Center
Sun 03:04:01 PM 45.0022 -122.0336 332° Northwest 308 354 21,400 780 Climbing Seattle Center
Sun 03:05:02 PM 45.0817 -122.0906 333° Northwest 317 365 22,100 787 Climbing Seattle Center
Sun 03:06:03 PM 45.1600 -122.1486 332° Northwest 319 367 23,000 836 Climbing Seattle Center
Sun 03:07:04 PM 45.2350 -122.2039 333° Northwest 312 359 23,800 492 Climbing Seattle Center
Sun 03:08:05 PM 45.3119 -122.2614 332° Northwest 313 360 24,000 98 Climbing Seattle Center
Sun 03:09:06 PM 45.4081 -122.3333 332° Northwest 328 377 24,000  Level Seattle Center
Sun 03:10:07 PM 45.4900 -122.3942 333° Northwest 334 384 24,000  Level Seattle Center
Sun 03:11:08 PM 45.5736 -122.4567 332° Northwest 339 390 24,000  Level Seattle Center
Sun 03:12:09 PM 45.6553 -122.5192 332° Northwest 338 389 24,000  Level Seattle Center
Sun 03:13:10 PM 45.7344 -122.5786 332° Northwest 327 376 24,000  Level Seattle Center
Sun 03:14:12 PM 45.8156 -122.6069 346° North 303 349 24,000  Level Seattle Center
Sun 03:15:13 PM 45.8994 -122.6242 352° North 304 350 24,000 -295 Level Seattle Center
Sun 03:16:14 PM 45.9856 -122.6447 351° North 315 362 23,400 -836 Descending Seattle Center
Sun 03:17:15 PM 46.0714 -122.6642 351° North 313 360 22,300 -1,033 Descending Seattle Center
Sun 03:18:16 PM 46.1503 -122.6853 349° North 293 337 21,300 -984 Descending Seattle Center
Sun 03:19:17 PM 46.2347 -122.7031 352° North 291 335 20,300 -984 Descending Seattle Center
Sun 03:20:18 PM 46.3142 -122.7219 351° North 291 335 19,300 -1,131 Descending Seattle Center
Sun 03:21:19 PM 46.4069 -122.7231 360° North 283 326 18,000 -1,082 Descending Seattle Center
Sun 03:22:20 PM 46.4844 -122.7169 North 281 323 17,100 -885 Descending Seattle Center
Sun 03:23:21 PM 46.5603 -122.7131 North 277 319 16,200 -934 Descending Seattle Center
Sun 03:24:22 PM 46.6361 -122.7111 North 276 318 15,200 -984 Descending Seattle Center
Sun 03:25:23 PM 46.7133 -122.7078 North 279 321 14,200 -1,010 Descending Seattle Center
Sun 03:26:03 PM 46.7708 -122.7039 North 277 319 13,500 -1,034 Descending Seattle Center
Sun 03:26:21 PM 46.7933 -122.7050 358° North 276 318 13,200 -835 Descending Seattle Center
Sun 03:27:22 PM 46.8569 -122.6578 27° Northeast 262 302 12,400 -816 Descending Seattle Center
Sun 03:28:26 PM 46.9111 -122.5756 46° Northeast 254 292 11,500 -1,033 Descending Seattle Center
Sun 03:29:24 PM 46.9608 -122.5078 43° Northeast 250 288 10,300 -1,317 Descending Seattle Center
Sun 03:30:29 PM 47.0189 -122.4364 40° Northeast 249 287 8,800 -1,333 Descending Seattle Center
Sun 03:31:30 PM 47.0775 -122.3847 31° Northeast 247 284 7,500 -1,230 Descending Seattle Center
Sun 03:32:31 PM 47.1358 -122.3403 27° Northeast 239 275 6,300 -1,180 Descending Seattle Center
Sun 03:33:32 PM 47.1978 -122.3186 13° North 230 265 5,100 -1,279 Descending Seattle Center
Sun 03:34:33 PM 47.2644 -122.3225 358° North 226 260 3,700 -1,131 Descending Seattle Center
Sun 03:35:34 PM 47.3247 -122.3178 North 217 250 2,800 -885 Descending Seattle Center
Sun 03:37:00 PM 47.4325 -122.3126 North  Level Estimated

Login

Don't have an account? Register now (free) for customized features, flight alerts, and more!